Time;durP1;ratioP1;P1;durP2;ratioP2;P2;SDS_P1;SDS_P2;PMS_P1;PMS_P2;Temp;Humidity;BMP_temperature;BMP_pressure;BME280_temperature;BME280_humidity;BME280_pressure;Samples;Min_cycle;Max_cycle;Signal;HPM_P1;HPM_P2
2022/06/27 00:03:26;;;;;;;3.03;1.75;;;22.70;64.50;;;;;;10288420;28;20049;-58
2022/06/27 00:08:27;;;;;;;2.53;1.77;;;22.70;64.60;;;;;;10271949;28;20035;-58
2022/06/27 00:13:28;;;;;;;3.42;1.83;;;22.70;64.50;;;;;;10286083;28;20023;-58
2022/06/27 00:18:29;;;;;;;2.00;1.20;;;22.60;64.60;;;;;;10260250;28;20382;-58
2022/06/27 00:23:29;;;;;;;1.20;0.93;;;22.60;64.60;;;;;;10287152;28;20027;-59
2022/06/27 00:28:30;;;;;;;1.70;1.40;;;22.60;64.60;;;;;;10283835;28;20031;-59
2022/06/27 00:33:31;;;;;;;1.23;1.02;;;22.70;64.50;;;;;;10254262;28;20105;-59
2022/06/27 00:38:32;;;;;;;1.92;1.55;;;22.60;64.60;;;;;;10268798;28;20031;-59
2022/06/27 00:43:33;;;;;;;1.88;1.48;;;22.60;64.60;;;;;;10271847;28;20161;-58
2022/06/27 00:48:33;;;;;;;2.33;1.70;;;22.60;64.60;;;;;;10265693;28;20027;-58
2022/06/27 00:53:34;;;;;;;2.88;1.58;;;22.60;64.60;;;;;;10273538;28;20589;-58
2022/06/27 00:58:36;;;;;;;2.80;1.75;;;22.60;64.60;;;;;;10268295;28;20686;-59
2022/06/27 01:03:37;;;;;;;1.95;1.65;;;22.60;64.60;;;;;;10286024;28;20134;-58
2022/06/27 01:08:39;;;;;;;2.10;1.52;;;22.60;64.60;;;;;;10283645;28;20529;-59
2022/06/27 01:13:39;;;;;;;1.90;1.50;;;22.60;64.60;;;;;;10245818;28;21483;-58
2022/06/27 01:18:40;;;;;;;1.63;1.13;;;22.60;64.70;;;;;;10266920;28;20031;-58
2022/06/27 01:23:41;;;;;;;2.17;1.70;;;22.60;64.80;;;;;;10285260;28;20038;-59
2022/06/27 01:28:42;;;;;;;1.92;1.60;;;22.60;64.80;;;;;;10286582;28;20533;-59
2022/06/27 01:33:43;;;;;;;1.95;1.40;;;22.60;64.70;;;;;;10286146;28;20129;-58
2022/06/27 01:38:44;;;;;;;1.75;1.38;;;22.60;64.70;;;;;;10259992;28;20118;-59
2022/06/27 01:43:48;;;;;;;1.60;1.50;;;22.60;64.80;;;;;;10252392;28;20043;-59
2022/06/27 01:48:49;;;;;;;2.08;1.13;;;22.60;64.70;;;;;;10252610;28;20512;-61
2022/06/27 01:53:52;;;;;;;1.83;1.42;;;22.60;64.80;;;;;;10258522;28;20126;-59
2022/06/27 01:58:57;;;;;;;2.13;1.50;;;22.60;64.80;;;;;;10284675;28;20045;-59
2022/06/27 02:04:01;;;;;;;2.33;1.88;;;22.50;64.80;;;;;;10284699;28;20038;-59
2022/06/27 02:09:08;;;;;;;2.47;1.75;;;22.50;64.70;;;;;;10268477;28;20069;-59
2022/06/27 02:14:09;;;;;;;1.33;1.17;;;22.50;64.70;;;;;;10265032;28;20402;-59
2022/06/27 02:19:17;;;;;;;2.25;1.77;;;22.50;64.80;;;;;;10279305;28;20038;-59
2022/06/27 02:24:18;;;;;;;1.80;1.08;;;22.50;64.70;;;;;;10236454;28;20035;-59
2022/06/27 02:29:19;;;;;;;1.60;1.40;;;22.50;64.80;;;;;;10290640;28;20030;-59
2022/06/27 02:34:20;;;;;;;3.42;1.60;;;22.50;64.80;;;;;;10278217;28;20043;-59
2022/06/27 02:39:24;;;;;;;2.40;1.65;;;22.50;64.90;;;;;;10291228;28;20057;-58
2022/06/27 02:44:29;;;;;;;2.50;1.70;;;22.50;64.80;;;;;;10275128;28;20137;-58
2022/06/27 02:49:30;;;;;;;1.88;1.40;;;22.50;65.40;;;;;;10271255;28;20046;-58
2022/06/27 02:54:36;;;;;;;2.55;1.77;;;22.50;64.90;;;;;;10266545;28;20052;-60
2022/06/27 02:59:40;;;;;;;3.33;1.48;;;22.50;64.90;;;;;;10280941;28;20043;-59
2022/06/27 03:04:41;;;;;;;1.52;1.25;;;22.50;64.90;;;;;;10281574;28;20031;-59
2022/06/27 03:09:42;;;;;;;1.88;1.35;;;22.40;65.20;;;;;;10258321;28;20506;-59
2022/06/27 03:14:42;;;;;;;1.30;0.98;;;22.50;64.80;;;;;;10287196;28;20038;-59
2022/06/27 03:19:43;;;;;;;1.90;1.30;;;22.50;64.80;;;;;;10289744;28;20031;-58
2022/06/27 03:24:44;;;;;;;1.83;1.52;;;22.40;64.80;;;;;;10269953;28;20035;-58
2022/06/27 03:29:45;;;;;;;1.50;1.30;;;22.40;65.00;;;;;;10287347;28;20042;-58
2022/06/27 03:34:45;;;;;;;2.35;1.38;;;22.50;65.00;;;;;;10286262;28;20035;-59
2022/06/27 03:39:46;;;;;;;2.00;1.25;;;22.40;64.80;;;;;;10272186;28;20728;-60
2022/06/27 03:44:47;;;;;;;1.65;1.30;;;22.40;64.90;;;;;;10284123;28;20035;-59
2022/06/27 03:50:00;;;;;;;2.30;1.73;;;22.40;64.80;;;;;;10248962;28;20027;-58
2022/06/27 03:55:00;;;;;;;1.65;1.20;;;22.40;65.00;;;;;;10288527;28;20907;-60
2022/06/27 04:00:02;;;;;;;1.15;1.05;;;22.40;64.90;;;;;;10272538;28;20038;-59
2022/06/27 04:05:03;;;;;;;2.08;1.45;;;22.40;64.80;;;;;;10276327;28;20085;-59
2022/06/27 04:10:07;;;;;;;2.35;1.65;;;22.40;64.90;;;;;;10286863;28;20058;-58
2022/06/27 04:15:10;;;;;;;2.25;1.90;;;22.40;65.00;;;;;;10258123;28;20042;-60
2022/06/27 04:20:11;;;;;;;1.90;1.55;;;22.40;64.90;;;;;;10284949;28;20031;-59
2022/06/27 04:25:12;;;;;;;1.67;1.33;;;22.40;64.90;;;;;;10257108;28;20027;-60
2022/06/27 04:30:16;;;;;;;1.83;1.65;;;22.40;64.90;;;;;;10264004;28;20043;-60
2022/06/27 04:35:17;;;;;;;2.75;2.10;;;22.40;64.90;;;;;;10266843;28;20061;-58
2022/06/27 04:40:19;;;;;;;2.55;1.77;;;22.30;64.80;;;;;;10282033;28;20038;-59
2022/06/27 04:45:20;;;;;;;2.15;1.83;;;22.40;65.00;;;;;;10284147;28;20105;-59
2022/06/27 04:50:22;;;;;;;5.32;2.35;;;22.30;65.20;;;;;;10278618;28;20081;-58
2022/06/27 04:55:24;;;;;;;11.57;2.63;;;22.40;65.50;;;;;;10268676;28;20069;-62
2022/06/27 05:00:25;;;;;;;9.65;2.83;;;22.40;65.80;;;;;;10272699;28;20756;-59
2022/06/27 05:05:25;;;;;;;7.25;2.97;;;22.40;66.40;;;;;;10261660;28;20042;-59
2022/06/27 05:10:26;;;;;;;10.43;2.60;;;22.40;66.50;;;;;;10286036;28;20035;-60
2022/06/27 05:15:27;;;;;;;3.65;2.65;;;22.50;66.80;;;;;;10287061;28;20132;-59
2022/06/27 05:20:30;;;;;;;8.48;3.65;;;22.50;67.00;;;;;;10285937;28;20019;-61
2022/06/27 05:25:31;;;;;;;5.60;2.58;;;22.50;67.10;;;;;;10286074;28;20077;-60
2022/06/27 05:30:33;;;;;;;5.72;2.22;;;22.50;67.20;;;;;;10284992;28;20097;-59
2022/06/27 05:35:34;;;;;;;5.80;3.17;;;22.50;67.20;;;;;;10281381;28;20047;-60
2022/06/27 05:46:19;;;;;;;11.98;2.75;;;22.50;67.20;;;;;;10257561;28;20054;-60
2022/06/27 05:51:22;;;;;;;11.00;3.65;;;22.40;67.20;;;;;;10281753;28;20572;-60
2022/06/27 06:03:03;;;;;;;8.00;3.22;;;22.40;67.10;;;;;;10290789;28;20043;-61
2022/06/27 06:08:08;;;;;;;6.05;2.80;;;22.40;67.10;;;;;;10292489;28;20059;-61
2022/06/27 06:13:22;;;;;;;4.90;2.55;;;22.40;66.90;;;;;;10292114;28;20038;-59
2022/06/27 06:18:23;;;;;;;3.30;1.85;;;22.40;66.90;;;;;;10293159;28;20034;-60
2022/06/27 06:23:24;;;;;;;3.67;2.10;;;22.40;66.40;;;;;;10275549;28;20030;-61
2022/06/27 06:28:30;;;;;;;6.03;3.72;;;22.40;65.80;;;;;;10275551;28;20018;-60
2022/06/27 06:33:31;;;;;;;23.20;4.97;;;22.30;65.50;;;;;;10266460;28;20039;-59
2022/06/27 06:38:32;;;;;;;15.73;4.85;;;22.30;65.70;;;;;;10281646;28;20029;-61
2022/06/27 06:43:33;;;;;;;11.05;4.78;;;22.30;66.20;;;;;;10259234;28;20123;-62
2022/06/27 06:48:35;;;;;;;9.02;4.20;;;22.30;66.40;;;;;;10276024;28;20112;-60
2022/06/27 06:53:36;;;;;;;8.07;3.90;;;22.30;66.40;;;;;;10283163;28;20070;-59
2022/06/27 06:58:37;;;;;;;6.28;3.22;;;22.30;66.40;;;;;;10289810;28;20035;-60
2022/06/27 07:03:38;;;;;;;7.25;3.10;;;22.30;66.10;;;;;;10279910;28;20106;-60
2022/06/27 07:08:39;;;;;;;9.40;4.43;;;22.30;66.00;;;;;;10288141;28;20058;-61
2022/06/27 07:13:40;;;;;;;10.10;4.03;;;22.30;66.40;;;;;;10278901;28;20038;-60
2022/06/27 07:18:43;;;;;;;7.28;3.03;;;22.30;66.30;;;;;;10284848;28;20059;-62
2022/06/27 07:23:48;;;;;;;11.52;4.28;;;22.30;66.20;;;;;;10270640;28;20039;-65
2022/06/27 07:28:49;;;;;;;8.60;3.38;;;22.30;66.50;;;;;;10285228;28;20493;-60
2022/06/27 07:33:54;;;;;;;5.63;2.60;;;22.30;66.60;;;;;;10263189;28;20085;-60
2022/06/27 07:38:55;;;;;;;7.75;4.03;;;22.30;66.30;;;;;;10284280;28;20030;-60
2022/06/27 07:43:56;;;;;;;8.20;3.45;;;22.30;66.30;;;;;;10285361;28;20375;-60
2022/06/27 07:48:57;;;;;;;8.60;2.88;;;22.30;66.20;;;;;;10277854;28;20562;-61
2022/06/27 07:53:58;;;;;;;5.47;3.33;;;22.30;66.20;;;;;;10246814;29;20376;-60
2022/06/27 07:58:59;;;;;;;5.07;3.50;;;22.30;66.30;;;;;;10267681;28;20441;-60
2022/06/27 08:04:04;;;;;;;9.13;3.17;;;22.30;66.20;;;;;;10283498;28;20510;-59
2022/06/27 08:09:09;;;;;;;4.35;2.95;;;22.30;66.30;;;;;;10282164;28;20042;-60
2022/06/27 08:15:07;;;;;;;6.82;3.45;;;22.30;66.40;;;;;;10286034;28;20235;-60
2022/06/27 08:26:25;;;;;;;4.97;3.25;;;22.30;67.10;;;;;;10264317;28;20038;-60
2022/06/27 08:31:44;;;;;;;4.97;3.67;;;22.30;67.10;;;;;;10287523;28;20046;-60
2022/06/27 08:36:52;;;;;;;4.45;3.10;;;22.30;67.10;;;;;;10286149;28;20218;-61
2022/06/27 08:41:59;;;;;;;7.10;4.15;;;22.30;67.10;;;;;;10287626;28;20056;-60
2022/06/27 08:47:06;;;;;;;4.57;3.47;;;22.30;67.00;;;;;;10285304;28;20038;-62
2022/06/27 08:52:23;;;;;;;4.55;3.20;;;22.30;67.10;;;;;;10284140;28;20035;-59
2022/06/27 08:57:26;;;;;;;5.43;3.38;;;22.30;67.10;;;;;;10237287;28;20063;-61
2022/06/27 09:15:02;;;;;;;10.27;3.45;;;22.30;67.10;;;;;;10244570;28;20078;-60
2022/06/27 09:20:05;;;;;;;4.20;2.88;;;22.30;67.20;;;;;;10273451;28;20504;-61
2022/06/27 09:25:22;;;;;;;4.88;3.25;;;22.20;67.10;;;;;;10260933;28;20065;-60
2022/06/27 09:30:32;;;;;;;4.85;3.33;;;22.30;67.10;;;;;;10284928;28;20090;-60
2022/06/27 09:35:54;;;;;;;5.60;3.20;;;22.30;67.00;;;;;;10244797;28;20523;-60
2022/06/27 09:40:57;;;;;;;4.63;3.13;;;22.20;67.00;;;;;;10246407;28;20119;-60
2022/06/27 09:46:15;;;;;;;5.35;3.17;;;22.30;66.90;;;;;;10283420;28;20710;-60
2022/06/27 09:51:17;;;;;;;6.57;3.33;;;22.30;67.00;;;;;;10261260;28;20039;-60
2022/06/27 09:56:19;;;;;;;4.47;3.30;;;22.30;67.00;;;;;;10279366;28;20035;-60
2022/06/27 10:01:21;;;;;;;4.47;3.42;;;22.20;67.10;;;;;;10280025;28;20077;-60
2022/06/27 10:06:22;;;;;;;4.45;3.00;;;22.20;67.00;;;;;;10283938;28;20038;-60
2022/06/27 10:11:23;;;;;;;3.42;2.80;;;22.20;67.00;;;;;;10280830;28;20026;-60
2022/06/27 10:16:24;;;;;;;4.50;2.78;;;22.20;67.10;;;;;;10283536;28;20070;-61
2022/06/27 10:21:33;;;;;;;4.70;3.22;;;22.20;67.00;;;;;;10282590;28;20081;-60
2022/06/27 10:26:41;;;;;;;4.43;3.17;;;22.20;67.00;;;;;;10284502;28;20058;-59
2022/06/27 10:31:45;;;;;;;4.07;2.85;;;22.20;67.00;;;;;;10272258;28;20031;-60
2022/06/27 10:36:46;;;;;;;4.43;3.05;;;22.20;67.00;;;;;;10269451;28;20526;-60
2022/06/27 10:41:47;;;;;;;4.75;3.20;;;22.20;66.90;;;;;;10291703;28;20081;-61
2022/06/27 10:46:49;;;;;;;4.13;2.70;;;22.30;66.90;;;;;;10290300;28;20067;-61
2022/06/27 10:51:52;;;;;;;3.42;3.05;;;22.20;66.90;;;;;;10267604;28;20038;-60
2022/06/27 10:58:04;;;;;;;4.70;2.90;;;22.20;66.80;;;;;;10277132;28;20042;-60
2022/06/27 11:03:55;;;;;;;2.80;2.50;;;22.20;66.70;;;;;;10281062;28;20505;-60
2022/06/27 11:09:15;;;;;;;3.10;2.53;;;22.20;66.90;;;;;;10290147;28;20034;-61
2022/06/27 11:15:03;;;;;;;5.25;3.55;;;22.20;66.80;;;;;;10289033;28;20039;-60
2022/06/27 11:26:26;;;;;;;3.55;2.95;;;22.20;66.90;;;;;;10289092;28;20043;-61
2022/06/27 11:36:46;;;;;;;3.75;3.17;;;22.20;67.00;;;;;;10289717;28;20047;-60
2022/06/27 11:41:53;;;;;;;3.70;2.70;;;22.20;66.90;;;;;;10288293;28;20037;-60
2022/06/27 11:47:07;;;;;;;4.10;2.92;;;22.20;66.90;;;;;;10271629;28;20031;-60
2022/06/27 11:52:13;;;;;;;11.65;3.05;;;22.20;66.90;;;;;;10266121;28;20108;-59
2022/06/27 11:57:33;;;;;;;3.58;2.90;;;22.20;66.90;;;;;;10287654;28;20691;-60
2022/06/27 12:02:38;;;;;;;3.55;2.65;;;22.20;66.80;;;;;;10267104;28;20028;-61
2022/06/27 12:07:58;;;;;;;3.30;2.55;;;22.20;66.70;;;;;;10267411;28;20050;-62
2022/06/27 12:13:00;;;;;;;3.55;2.85;;;22.20;66.70;;;;;;10266522;28;20340;-63
2022/06/27 12:18:03;;;;;;;6.30;2.95;;;22.20;66.80;;;;;;10267448;28;20097;-61
2022/06/27 12:23:05;;;;;;;3.33;2.45;;;22.20;66.70;;;;;;10260339;28;20134;-61
2022/06/27 12:28:08;;;;;;;4.80;3.03;;;22.20;66.70;;;;;;10285863;28;20030;-60
2022/06/27 12:33:13;;;;;;;3.65;2.50;;;22.20;66.60;;;;;;10285905;28;20540;-61
2022/06/27 12:38:14;;;;;;;3.38;2.80;;;22.20;66.70;;;;;;10285587;28;20097;-61
2022/06/27 12:43:16;;;;;;;5.15;2.97;;;22.20;66.80;;;;;;10285840;28;20359;-61
2022/06/27 12:48:17;;;;;;;2.95;2.17;;;22.20;66.80;;;;;;10265728;28;20701;-61
2022/06/27 12:53:19;;;;;;;3.53;2.70;;;22.20;66.80;;;;;;10281990;28;20117;-61
2022/06/27 12:58:21;;;;;;;3.67;2.58;;;22.20;66.90;;;;;;10285409;28;20043;-62
2022/06/27 13:03:22;;;;;;;5.32;3.00;;;22.20;67.00;;;;;;10264929;28;20405;-60
2022/06/27 13:08:23;;;;;;;3.40;2.90;;;22.20;66.90;;;;;;10267475;28;20105;-61
2022/06/27 13:13:24;;;;;;;3.72;2.47;;;22.20;66.80;;;;;;10284334;28;20472;-61
2022/06/27 13:18:24;;;;;;;3.80;2.70;;;22.20;66.90;;;;;;10273898;28;20118;-60
2022/06/27 13:23:25;;;;;;;4.10;2.92;;;22.20;66.70;;;;;;10285785;28;20089;-62
2022/06/27 13:28:26;;;;;;;3.33;2.67;;;22.20;66.60;;;;;;10283523;28;20037;-61
2022/06/27 13:33:26;;;;;;;4.57;2.55;;;22.20;66.70;;;;;;10267513;28;20043;-61
2022/06/27 13:38:27;;;;;;;3.00;2.60;;;22.20;66.60;;;;;;10283735;28;20278;-61
2022/06/27 13:43:28;;;;;;;3.10;2.70;;;22.20;66.60;;;;;;10257424;28;20085;-61
2022/06/27 13:48:28;;;;;;;2.83;2.35;;;22.20;66.50;;;;;;10279439;28;20023;-61
2022/06/27 13:53:30;;;;;;;3.90;2.92;;;22.10;66.30;;;;;;10285339;28;20039;-60
2022/06/27 13:58:31;;;;;;;2.95;2.10;;;22.10;66.80;;;;;;10283424;28;20537;-60
2022/06/27 14:03:32;;;;;;;3.50;2.47;;;22.10;66.10;;;;;;10283623;28;20390;-60
2022/06/27 14:08:33;;;;;;;2.83;2.17;;;22.10;66.20;;;;;;10299112;28;20121;-60
2022/06/27 14:13:33;;;;;;;2.28;2.08;;;22.10;66.20;;;;;;10266423;28;20035;-61
2022/06/27 14:18:34;;;;;;;1.90;1.50;;;22.10;66.10;;;;;;10272450;28;20065;-62
2022/06/27 14:23:35;;;;;;;3.30;2.22;;;22.10;66.00;;;;;;10257958;28;20121;-61
2022/06/27 14:28:35;;;;;;;2.83;2.00;;;22.10;66.00;;;;;;10280247;28;20168;-62
2022/06/27 14:33:39;;;;;;;5.97;3.17;;;22.10;66.00;;;;;;10257660;28;20135;-60
2022/06/27 14:38:39;;;;;;;5.43;2.53;;;22.10;67.10;;;;;;10284750;28;20031;-59
2022/06/27 14:43:40;;;;;;;10.38;2.60;;;22.10;67.50;;;;;;10296753;28;20026;-61
2022/06/27 14:48:41;;;;;;;4.43;3.13;;;22.10;67.30;;;;;;10277701;28;20033;-60
2022/06/27 14:53:41;;;;;;;8.30;3.10;;;22.10;67.00;;;;;;10270391;28;20106;-61
2022/06/27 14:58:42;;;;;;;4.00;2.55;;;22.10;66.80;;;;;;10275111;28;20053;-60
2022/06/27 15:03:43;;;;;;;6.35;2.53;;;22.10;67.00;;;;;;10271747;28;20042;-61
2022/06/27 15:08:44;;;;;;;5.85;3.08;;;22.10;67.10;;;;;;10265848;28;20102;-60
2022/06/27 15:13:45;;;;;;;5.38;2.67;;;22.10;67.10;;;;;;10287859;28;20117;-61
2022/06/27 15:18:46;;;;;;;6.75;2.47;;;22.10;67.20;;;;;;10298743;28;20457;-60
2022/06/27 15:23:47;;;;;;;8.13;2.47;;;22.10;67.00;;;;;;10282209;28;20030;-60
2022/06/27 15:28:47;;;;;;;6.22;2.78;;;22.10;66.90;;;;;;10284359;28;20027;-59
2022/06/27 15:33:48;;;;;;;8.07;2.28;;;22.10;66.50;;;;;;10268440;28;20046;-58
2022/06/27 15:38:49;;;;;;;10.75;3.30;;;22.10;65.90;;;;;;10264488;28;20077;-58
2022/06/27 15:43:50;;;;;;;4.28;2.47;;;22.20;67.60;;;;;;10278336;28;20043;-57
2022/06/27 15:48:51;;;;;;;10.27;3.63;;;22.20;66.50;;;;;;10255798;28;20374;-59
2022/06/27 15:53:52;;;;;;;8.63;2.78;;;22.20;69.00;;;;;;10249545;28;20061;-60
2022/06/27 15:58:52;;;;;;;7.47;2.47;;;22.40;69.70;;;;;;10264346;28;20396;-60
2022/06/27 16:03:53;;;;;;;7.13;2.50;;;22.40;69.70;;;;;;10289023;28;20038;-61
2022/06/27 16:08:54;;;;;;;6.70;2.38;;;22.50;69.60;;;;;;10288851;28;20562;-60
2022/06/27 16:13:55;;;;;;;8.27;2.40;;;22.40;69.20;;;;;;10266332;28;20383;-57
2022/06/27 16:18:55;;;;;;;18.27;3.08;;;22.40;69.30;;;;;;10283638;28;20102;-56
2022/06/27 16:23:56;;;;;;;13.70;3.00;;;22.40;69.10;;;;;;10278127;28;20565;-60
2022/06/27 16:28:57;;;;;;;8.13;2.35;;;22.40;69.30;;;;;;10278840;28;20051;-60
2022/06/27 16:33:58;;;;;;;11.02;2.80;;;22.40;69.30;;;;;;10278811;28;20117;-57
2022/06/27 16:38:58;;;;;;;9.20;2.67;;;22.40;69.30;;;;;;10271735;28;20478;-57
2022/06/27 16:43:59;;;;;;;8.43;2.53;;;22.30;69.50;;;;;;10280283;28;20395;-59
2022/06/27 16:49:00;;;;;;;8.98;2.63;;;22.30;69.50;;;;;;10264668;28;20122;-58
2022/06/27 16:54:01;;;;;;;6.43;2.40;;;22.30;69.50;;;;;;10244233;28;20038;-58
2022/06/27 16:59:02;;;;;;;5.97;2.08;;;22.30;69.40;;;;;;10258850;28;20023;-61
2022/06/27 17:04:03;;;;;;;9.32;2.25;;;22.30;69.30;;;;;;10269962;28;20475;-59
2022/06/27 17:09:04;;;;;;;8.30;2.30;;;22.30;69.10;;;;;;10285463;28;20043;-59
2022/06/27 17:14:04;;;;;;;5.85;1.95;;;22.30;69.00;;;;;;10256471;28;20035;-58
2022/06/27 17:19:05;;;;;;;9.43;2.90;;;22.30;68.90;;;;;;10279076;28;20023;-60
2022/06/27 17:24:06;;;;;;;8.50;1.85;;;22.40;68.60;;;;;;10264190;28;20633;-60
2022/06/27 17:29:07;;;;;;;6.85;2.20;;;22.30;68.70;;;;;;10284864;28;20072;-59
2022/06/27 17:34:09;;;;;;;4.95;1.50;;;22.30;68.70;;;;;;10259512;28;20031;-59
2022/06/27 17:39:10;;;;;;;5.93;2.10;;;22.30;68.60;;;;;;10286288;28;20038;-59
2022/06/27 17:44:11;;;;;;;5.28;1.85;;;22.30;68.50;;;;;;10262263;28;20030;-61
2022/06/27 17:49:11;;;;;;;4.43;1.65;;;22.30;68.60;;;;;;10275548;28;20071;-60
2022/06/27 17:54:12;;;;;;;7.82;2.00;;;22.30;68.20;;;;;;10284392;28;20035;-60
2022/06/27 17:59:13;;;;;;;5.97;2.30;;;22.30;68.20;;;;;;10283831;28;20034;-59
2022/06/27 18:04:14;;;;;;;7.10;2.10;;;22.20;67.90;;;;;;10266525;28;20035;-60
2022/06/27 18:09:15;;;;;;;5.22;1.50;;;22.20;68.10;;;;;;10281918;28;20662;-59
2022/06/27 18:14:17;;;;;;;4.50;1.60;;;22.20;68.10;;;;;;10264361;28;20031;-60
2022/06/27 18:19:17;;;;;;;11.65;2.78;;;22.20;68.20;;;;;;10274869;28;20114;-60
2022/06/27 18:24:18;;;;;;;4.47;1.80;;;22.20;68.00;;;;;;10268595;28;20030;-61
2022/06/27 18:29:19;;;;;;;6.70;2.22;;;22.20;67.80;;;;;;10284294;28;20146;-59
2022/06/27 18:34:20;;;;;;;5.82;1.77;;;22.20;68.10;;;;;;10283822;28;20043;-60
2022/06/27 18:39:21;;;;;;;8.50;2.42;;;22.20;68.10;;;;;;10283187;28;20027;-60
2022/06/27 18:44:22;;;;;;;6.00;2.00;;;22.20;68.30;;;;;;10283482;28;20034;-61
2022/06/27 18:49:23;;;;;;;2.92;1.65;;;22.20;68.40;;;;;;10271604;28;20655;-60
2022/06/27 18:54:24;;;;;;;4.75;2.05;;;22.20;68.80;;;;;;10245150;28;20040;-59
2022/06/27 18:59:26;;;;;;;5.15;4.07;;;22.20;68.40;;;;;;10277042;28;20129;-60
2022/06/27 19:04:26;;;;;;;5.75;2.65;;;22.20;68.90;;;;;;10274544;28;20189;-60
2022/06/27 19:09:28;;;;;;;8.15;3.35;;;22.20;68.50;;;;;;10267208;28;20039;-60
2022/06/27 19:14:29;;;;;;;4.35;3.92;;;22.20;68.70;;;;;;10287892;28;20035;-60
2022/06/27 19:19:30;;;;;;;8.13;5.53;;;22.20;68.70;;;;;;10265825;28;20393;-59
2022/06/27 19:24:31;;;;;;;7.22;4.45;;;22.20;69.70;;;;;;10281807;28;20042;-59
2022/06/27 19:29:32;;;;;;;7.88;4.85;;;22.30;69.40;;;;;;10279928;28;20027;-60
2022/06/27 19:34:33;;;;;;;7.82;4.45;;;22.30;68.90;;;;;;10279728;28;20441;-60
2022/06/27 19:39:34;;;;;;;4.68;3.80;;;22.30;69.00;;;;;;10272043;28;20125;-61
2022/06/27 19:44:35;;;;;;;6.50;4.10;;;22.20;68.90;;;;;;10284710;28;20555;-60
2022/06/27 19:49:35;;;;;;;5.55;3.88;;;22.20;68.90;;;;;;10266775;28;20467;-61
2022/06/27 19:54:36;;;;;;;5.30;3.63;;;22.10;68.80;;;;;;10254567;28;20043;-60
2022/06/27 19:59:37;;;;;;;3.90;3.53;;;22.10;68.70;;;;;;10276939;28;20057;-60
2022/06/27 20:04:39;;;;;;;5.93;3.28;;;22.10;68.60;;;;;;10259516;28;20473;-60
2022/06/27 20:09:40;;;;;;;4.68;2.75;;;22.10;68.40;;;;;;10287675;28;20035;-60
2022/06/27 20:14:42;;;;;;;2.85;2.30;;;22.10;68.40;;;;;;10266967;28;20041;-60
2022/06/27 20:19:43;;;;;;;3.80;2.15;;;22.10;68.30;;;;;;10288148;28;20022;-61
2022/06/27 20:24:44;;;;;;;3.22;2.00;;;22.10;68.10;;;;;;10286639;28;20038;-61
2022/06/27 20:29:45;;;;;;;3.17;1.85;;;22.10;68.00;;;;;;10287757;28;20031;-59
2022/06/27 20:34:46;;;;;;;3.28;1.60;;;22.10;67.80;;;;;;10288062;28;20043;-60
2022/06/27 20:39:47;;;;;;;2.42;1.60;;;22.10;67.60;;;;;;10253672;28;20674;-60
2022/06/27 20:44:48;;;;;;;2.65;1.52;;;22.10;67.50;;;;;;10265597;28;20035;-60
2022/06/27 20:49:51;;;;;;;2.17;1.60;;;22.10;67.40;;;;;;10271197;28;20430;-60
2022/06/27 20:54:52;;;;;;;2.90;2.03;;;22.10;67.30;;;;;;10250762;28;20039;-60
2022/06/27 20:59:53;;;;;;;2.65;1.70;;;22.10;67.30;;;;;;10286467;28;20034;-60
2022/06/27 21:04:54;;;;;;;3.35;1.80;;;22.10;67.30;;;;;;10285740;28;20062;-61
2022/06/27 21:15:14;;;;;;;2.17;1.50;;;22.10;67.10;;;;;;10285942;28;20050;-61
2022/06/27 21:20:15;;;;;;;4.88;1.88;;;22.00;66.90;;;;;;10277860;28;20031;-59
2022/06/27 21:25:15;;;;;;;2.90;1.75;;;22.00;66.70;;;;;;10286852;28;20502;-60
2022/06/27 21:30:16;;;;;;;2.03;1.30;;;22.00;66.70;;;;;;10286020;28;20405;-60
2022/06/27 21:35:17;;;;;;;2.15;1.20;;;22.00;66.60;;;;;;10284913;28;20073;-61
2022/06/27 21:40:18;;;;;;;1.58;1.10;;;22.00;66.60;;;;;;10269076;28;20046;-60
2022/06/27 21:45:19;;;;;;;2.50;1.30;;;22.00;66.50;;;;;;10285141;28;20367;-61
2022/06/27 21:50:19;;;;;;;3.05;1.20;;;22.00;66.40;;;;;;10265160;28;20042;-60
2022/06/27 21:55:22;;;;;;;1.67;1.00;;;22.00;66.40;;;;;;10282859;28;20740;-60
2022/06/27 22:00:36;;;;;;;1.08;0.95;;;22.00;66.30;;;;;;10283828;28;20069;-60
2022/06/27 22:05:38;;;;;;;1.92;1.20;;;22.00;66.30;;;;;;10275665;28;20041;-60
2022/06/27 22:10:40;;;;;;;2.53;1.40;;;22.00;66.20;;;;;;10249381;28;20093;-60
2022/06/27 22:15:46;;;;;;;2.58;1.25;;;21.90;66.10;;;;;;10276729;28;20103;-60
2022/06/27 22:20:50;;;;;;;2.00;1.08;;;21.90;66.10;;;;;;10284732;28;20124;-61
2022/06/27 22:25:51;;;;;;;2.22;0.90;;;21.90;66.00;;;;;;10257467;28;20082;-60
2022/06/27 22:30:52;;;;;;;1.40;0.77;;;21.90;65.90;;;;;;10283721;28;20042;-60
2022/06/27 22:35:52;;;;;;;1.80;1.02;;;21.90;66.00;;;;;;10253422;28;20619;-59
2022/06/27 22:40:53;;;;;;;2.08;1.00;;;21.90;65.80;;;;;;10254949;28;20033;-59
2022/06/27 22:45:54;;;;;;;1.40;0.93;;;21.90;65.80;;;;;;10275666;28;20486;-60
2022/06/27 22:50:54;;;;;;;1.88;1.10;;;21.90;65.80;;;;;;10282401;28;20058;-61
2022/06/27 22:55:56;;;;;;;1.50;0.88;;;21.90;65.60;;;;;;10275949;28;20186;-59
2022/06/27 23:00:56;;;;;;;1.17;0.75;;;21.90;65.60;;;;;;10253705;28;20058;-60
2022/06/27 23:05:57;;;;;;;2.00;1.02;;;21.90;65.60;;;;;;10259895;28;20640;-60
2022/06/27 23:10:58;;;;;;;2.20;0.90;;;21.90;65.50;;;;;;10272048;28;20390;-60
2022/06/27 23:15:59;;;;;;;1.70;1.15;;;21.90;65.40;;;;;;10292384;28;20049;-61
2022/06/27 23:20:59;;;;;;;1.90;0.95;;;21.80;65.30;;;;;;10290481;28;20023;-61
2022/06/27 23:26:00;;;;;;;1.33;0.90;;;21.80;65.20;;;;;;10290751;28;20035;-61
2022/06/27 23:31:01;;;;;;;1.63;0.98;;;21.80;65.20;;;;;;10290871;28;20057;-60
2022/06/27 23:36:03;;;;;;;2.05;1.15;;;21.80;65.10;;;;;;10263572;28;20051;-60
2022/06/27 23:41:04;;;;;;;1.70;0.88;;;21.80;65.20;;;;;;10272025;28;20031;-60
2022/06/27 23:46:06;;;;;;;1.70;0.90;;;21.80;65.10;;;;;;10288708;28;20058;-60
2022/06/27 23:51:07;;;;;;;0.85;0.70;;;21.80;65.10;;;;;;10267520;28;20054;-60
2022/06/27 23:56:07;;;;;;;1.20;0.80;;;21.80;65.00;;;;;;10254468;28;20505;-61
